Aérodrome :
LOGIN :

S'inscrire | Disclaimer

   EN    FR    IT 

 










Légende :    VFR   VFR Marginal   IFR   IFR Intensif   IFR Très Intensif
Visi : 
Plafond : 
>= 8 km
>= 3000ft
5 à 8 km
1000 à 3000 ft
1500m à 5 km
500 à 1000 ft
800 à 1500m
200 à 500 ft
< 800m
< 200 ft
Symboles :   Orages  Brouillard  Fortes neiges  Fortes précipitations  Vent > 20 kt
SIGMETs :   Divers  Orages  Givrage  Turbulence  Onde Orograph.  Cendres Volcan.






- Altitude de l'aérodrome : 374 ft
- Code IATA : LIS


LPPT - Lisboa Portela

DERNIER METAR :
  • 181830Z 25009KT 9999 FEW028 BKN040 17/12 Q1016

METARs EXPIRÉS :
  • 181800Z 25009KT 9999 SCT038 BKN042 17/12 Q1016
  • 181730Z 26010KT 230V290 9999 FEW032 BKN040 18/12 Q1016
  • 181700Z 26009KT 9999 SCT032 BKN040 18/11 Q1017
  • 181630Z 25009KT 220V290 9999 FEW030 BKN040 18/12 Q1017
  • 181600Z 24011KT 220V280 9999 FEW034 BKN042 19/11 Q1017

TAF TAF LPPT
Valide du 18 à 18h jusqu'au 20 à 00h UTC


181700Z 1818/1924 26008KT 9999 BKN035
BECMG 1903/1906 20008KT SCT020
BECMG 1908/1911 22015KT 6000 -RADZ SCT006 BKN012
TEMPO 1911/1916 22020G30KT 3000 RADZ BR SCT002 BKN005
BECMG 1916/1918 32015KT SCT025
TEMPO 1917/1924 5000 SHRA BKN015 FEW020CB



MET'MAP, la Météo Aéronautique d'un coup d'oeil ! - Copyright ORBIFLY Décembre 2007 - Disclaimer

ORBIFLY MET'MAP TEAM :

Programmation & Développement : Alexandra Zaïnal
Conception & Développement : Baudouin d'Aumeries
Co-Programmation & Développement : Marc-Olivier Méhu
Soutien technique & logistique : Manuel Goepfert

Contact : metmap@orbifly.com




SOURCES & CREDITS :

   NOAA